Lino Lakes, Minnesota
Current Conditions -  °F | °C
As of 7:31 AM on Friday 19 Dec 2014 (Local Time) from K21D Reporting Station
Overcast Overcast  
Wind Chill: 16°   Ceiling: 3300
Heat Index: 23°   Visibility: 10mi
Dew Point: 19°   Wind: 6mph
Humidity: 86%   Direction: 180°S
Pressure: 30.26"   Gusts: NA
Location:  45.0958°N, 93.0043°W
Report Text: K21D 191331Z AUTO 18005KT 10SM OVC033 M05/M07 A3026 RMK AO2
Loading
Personal Weather Stations






























Interactive Weather Map New forecast layout! Learn more

10-Day Weather Forecast

Advertisements
Track Severe Weather on mobile